createdAt,value
2023-05-22T00:00:33.377Z,38.66
2023-05-22T00:01:33.384Z,38.68
2023-05-22T00:02:33.796Z,38.67
2023-05-22T00:03:33.397Z,38.68
2023-05-22T00:04:33.352Z,38.69
2023-05-22T00:05:33.460Z,38.68
2023-05-22T00:06:33.307Z,38.67
2023-05-22T00:07:33.781Z,38.66
2023-05-22T00:08:33.326Z,38.68
2023-05-22T00:09:33.341Z,38.66
2023-05-22T00:10:33.336Z,38.68
2023-05-22T00:11:33.364Z,38.68
2023-05-22T00:12:33.774Z,38.70
2023-05-22T00:13:33.366Z,38.67
2023-05-22T00:14:33.379Z,38.67
2023-05-22T00:15:33.385Z,38.69
2023-05-22T00:16:33.444Z,38.68
2023-05-22T00:17:33.784Z,38.69
2023-05-22T00:18:33.359Z,38.67
2023-05-22T00:19:33.435Z,38.67
2023-05-22T00:20:33.386Z,38.69
2023-05-22T00:21:33.412Z,38.68
2023-05-22T00:22:33.416Z,38.68
2023-05-22T00:23:33.423Z,38.67
2023-05-22T00:24:33.448Z,38.67
2023-05-22T00:25:33.435Z,38.69
2023-05-22T00:26:33.437Z,38.68
2023-05-22T00:27:33.470Z,38.69
2023-05-22T00:28:33.420Z,38.68
2023-05-22T00:29:33.430Z,38.69
2023-05-22T00:30:33.432Z,38.66
2023-05-22T00:31:33.447Z,38.65
2023-05-22T00:32:33.442Z,38.67
2023-05-22T00:33:33.453Z,38.66
2023-05-22T00:34:33.475Z,38.68
2023-05-22T00:35:33.423Z,38.66
2023-05-22T00:36:33.489Z,38.67
2023-05-22T00:37:33.478Z,38.67
2023-05-22T00:38:33.524Z,38.69
2023-05-22T00:39:33.499Z,38.68
2023-05-22T00:40:33.473Z,38.70
2023-05-22T00:41:33.452Z,38.68
2023-05-22T00:42:33.457Z,38.69
2023-05-22T00:43:33.419Z,38.68
2023-05-22T00:44:33.494Z,38.68
2023-05-22T00:45:33.473Z,38.69
2023-05-22T00:46:33.571Z,38.68
2023-05-22T00:47:33.513Z,38.68
2023-05-22T00:48:33.504Z,38.68
2023-05-22T00:49:33.457Z,38.70
2023-05-22T00:50:33.512Z,38.69
2023-05-22T00:51:33.467Z,38.68
2023-05-22T00:52:33.752Z,38.68
2023-05-22T00:53:33.488Z,38.66
2023-05-22T00:54:33.516Z,38.70
2023-05-22T00:55:33.492Z,38.69
2023-05-22T00:56:33.510Z,38.69
2023-05-22T00:57:33.514Z,38.68
2023-05-22T00:58:33.471Z,38.69
2023-05-22T00:59:33.570Z,38.69
2023-05-22T01:00:33.555Z,38.69
2023-05-22T01:01:33.792Z,38.68
2023-05-22T01:02:33.564Z,38.69
2023-05-22T01:03:33.588Z,38.68
2023-05-22T01:04:33.548Z,38.68
2023-05-22T01:05:33.553Z,38.68
2023-05-22T01:06:33.539Z,38.69
2023-05-22T01:07:33.530Z,38.71
2023-05-22T01:08:33.540Z,38.69
2023-05-22T01:09:33.520Z,38.70
2023-05-22T01:10:33.537Z,38.70
2023-05-22T01:11:33.558Z,38.71
2023-05-22T01:12:33.538Z,38.68
2023-05-22T01:13:33.548Z,38.70
2023-05-22T01:14:33.550Z,38.72
2023-05-22T01:15:33.574Z,38.72
2023-05-22T01:16:33.536Z,38.69
2023-05-22T01:17:33.549Z,38.69
2023-05-22T01:18:33.528Z,38.68
2023-05-22T01:19:33.685Z,38.71
2023-05-22T01:20:33.634Z,38.71
2023-05-22T01:21:33.554Z,38.72
2023-05-22T01:22:33.613Z,38.70
2023-05-22T01:23:33.561Z,38.72
2023-05-22T01:24:33.570Z,38.72
2023-05-22T01:25:33.611Z,38.71
2023-05-22T01:26:33.576Z,38.70
2023-05-22T01:27:33.562Z,38.71
2023-05-22T01:28:33.584Z,38.72
2023-05-22T01:29:33.585Z,38.70
2023-05-22T01:30:33.618Z,38.70
2023-05-22T01:31:33.598Z,38.71
2023-05-22T01:32:33.725Z,38.71
2023-05-22T01:33:33.678Z,38.72
2023-05-22T01:34:33.602Z,38.71
2023-05-22T01:35:33.599Z,38.72
2023-05-22T01:36:33.552Z,38.70
2023-05-22T01:37:33.609Z,38.70
2023-05-22T01:38:33.564Z,38.72
2023-05-22T01:39:33.618Z,38.72
2023-05-22T01:40:33.622Z,38.73
2023-05-22T01:41:33.598Z,38.72
2023-05-22T01:42:33.650Z,38.72
2023-05-22T01:43:33.613Z,38.73
2023-05-22T01:44:33.611Z,38.72
2023-05-22T01:45:33.646Z,38.71
2023-05-22T01:46:33.634Z,38.72
2023-05-22T01:47:33.705Z,38.74
2023-05-22T01:48:33.632Z,38.74
2023-05-22T01:49:33.684Z,38.75
2023-05-22T01:50:33.700Z,38.72
2023-05-22T01:51:33.700Z,38.72
2023-05-22T01:52:33.714Z,38.73
2023-05-22T01:53:33.651Z,38.73
2023-05-22T01:54:33.666Z,38.72
2023-05-22T01:55:33.669Z,38.73
2023-05-22T01:56:33.662Z,38.73
2023-05-22T01:57:33.680Z,38.72
2023-05-22T01:58:33.687Z,38.73
2023-05-22T01:59:33.685Z,38.72
2023-05-22T02:00:33.714Z,38.73
2023-05-22T02:01:33.717Z,38.75
2023-05-22T02:02:33.873Z,38.72
2023-05-22T02:03:33.743Z,38.73
2023-05-22T02:04:33.699Z,38.73
2023-05-22T02:05:33.708Z,38.72
2023-05-22T02:06:33.707Z,38.72
2023-05-22T02:07:33.708Z,38.73
2023-05-22T02:08:33.717Z,38.73
2023-05-22T02:09:33.727Z,38.74
2023-05-22T02:10:33.728Z,38.74
2023-05-22T02:11:33.734Z,38.73
2023-05-22T02:12:33.696Z,38.75
2023-05-22T02:13:33.702Z,38.75
2023-05-22T02:14:33.751Z,38.72
2023-05-22T02:15:33.784Z,38.73
2023-05-22T02:16:33.734Z,38.75
2023-05-22T02:17:33.803Z,38.77
2023-05-22T02:18:33.787Z,38.76
2023-05-22T02:19:33.874Z,38.73
2023-05-22T02:20:33.763Z,38.74
2023-05-22T02:21:33.857Z,38.73
2023-05-22T02:22:33.780Z,38.73
2023-05-22T02:23:33.821Z,38.75
2023-05-22T02:24:33.827Z,38.72
2023-05-22T02:25:33.847Z,38.75
2023-05-22T02:26:33.850Z,38.77
2023-05-22T02:27:33.844Z,38.74
2023-05-22T02:28:33.857Z,38.75
2023-05-22T02:29:33.826Z,38.75
2023-05-22T02:30:33.824Z,38.74
2023-05-22T02:31:33.905Z,38.75
2023-05-22T02:32:33.873Z,38.73
2023-05-22T02:33:33.891Z,38.78
2023-05-22T02:34:33.885Z,38.77
2023-05-22T02:35:33.869Z,38.75
2023-05-22T02:36:33.895Z,38.77
2023-05-22T02:37:33.911Z,38.75
2023-05-22T02:38:33.926Z,38.77
2023-05-22T02:39:33.929Z,38.75
2023-05-22T02:40:33.946Z,38.74
2023-05-22T02:41:34.802Z,38.77
2023-05-22T02:42:33.959Z,38.79
2023-05-22T02:43:33.965Z,38.73
2023-05-22T02:44:33.973Z,38.76
2023-05-22T02:45:33.993Z,38.78
2023-05-22T02:46:33.993Z,38.77
2023-05-22T02:47:34.027Z,38.75
2023-05-22T02:48:33.998Z,38.75
2023-05-22T02:49:34.004Z,38.77
2023-05-22T02:50:34.005Z,38.77
2023-05-22T02:51:33.958Z,38.76
2023-05-22T02:52:34.013Z,38.75
2023-05-22T02:53:34.026Z,38.75
2023-05-22T02:54:34.010Z,38.75
2023-05-22T02:55:34.045Z,38.75
2023-05-22T02:56:34.049Z,38.76
2023-05-22T02:57:34.070Z,38.76
2023-05-22T02:58:34.005Z,38.75
2023-05-22T02:59:34.059Z,38.77
2023-05-22T03:00:34.049Z,38.75
2023-05-22T03:01:34.073Z,38.78
2023-05-22T03:02:34.534Z,38.77
2023-05-22T03:03:34.280Z,38.76
2023-05-22T03:04:34.119Z,38.78
2023-05-22T03:05:34.102Z,38.76
2023-05-22T03:06:34.105Z,38.76
2023-05-22T03:07:34.124Z,38.80
2023-05-22T03:08:34.096Z,38.78
2023-05-22T03:09:34.133Z,38.77
2023-05-22T03:10:34.121Z,38.77
2023-05-22T03:11:34.143Z,38.78
2023-05-22T03:12:34.161Z,38.76
2023-05-22T03:13:34.148Z,38.77
2023-05-22T03:14:34.166Z,38.78
2023-05-22T03:15:34.153Z,38.78
2023-05-22T03:16:34.294Z,38.76
2023-05-22T03:17:34.220Z,38.78
2023-05-22T03:18:34.232Z,38.80
2023-05-22T03:19:34.307Z,38.75
2023-05-22T03:20:34.251Z,38.76
2023-05-22T03:21:34.216Z,38.77
2023-05-22T03:22:34.275Z,38.75
2023-05-22T03:23:34.278Z,38.78
2023-05-22T03:24:34.250Z,38.77
2023-05-22T03:25:34.283Z,38.77
2023-05-22T03:26:34.257Z,38.78
2023-05-22T03:27:34.306Z,38.78
2023-05-22T03:28:34.373Z,38.78
2023-05-22T03:29:34.313Z,38.78
2023-05-22T03:30:34.329Z,38.78
2023-05-22T03:31:34.333Z,38.79
2023-05-22T03:32:34.411Z,38.77
2023-05-22T03:33:34.373Z,38.79
2023-05-22T03:34:34.350Z,38.79
2023-05-22T03:35:34.355Z,38.78
2023-05-22T03:36:34.373Z,38.79
2023-05-22T03:37:34.848Z,38.78
2023-05-22T03:38:34.384Z,38.78
2023-05-22T03:39:34.387Z,38.80
2023-05-22T03:40:34.384Z,38.79
2023-05-22T03:41:34.400Z,38.77
2023-05-22T03:42:34.396Z,38.80
2023-05-22T03:43:34.452Z,38.79
2023-05-22T03:44:34.417Z,38.80
2023-05-22T03:45:34.496Z,38.78
2023-05-22T03:46:34.464Z,38.77
2023-05-22T03:47:34.515Z,38.76
2023-05-22T03:48:34.475Z,38.78
2023-05-22T03:49:34.485Z,38.78
2023-05-22T03:50:34.497Z,38.80
2023-05-22T03:51:34.495Z,38.79
2023-05-22T03:52:34.517Z,38.79
2023-05-22T03:53:34.518Z,38.82
2023-05-22T03:54:34.522Z,38.78
2023-05-22T03:55:34.583Z,38.76
2023-05-22T03:56:34.542Z,38.77
2023-05-22T03:57:34.571Z,38.76
2023-05-22T03:58:34.570Z,38.80
2023-05-22T03:59:34.597Z,38.79
2023-05-22T04:00:34.663Z,38.77
2023-05-22T04:01:34.593Z,38.77
2023-05-22T04:02:34.726Z,38.77
2023-05-22T04:03:34.704Z,38.79
2023-05-22T04:04:34.687Z,38.76
2023-05-22T04:05:34.731Z,38.77
2023-05-22T04:06:34.640Z,38.78
2023-05-22T04:07:34.688Z,38.80
2023-05-22T04:08:34.720Z,38.79
2023-05-22T04:09:34.754Z,38.75
2023-05-22T04:10:34.709Z,38.78
2023-05-22T04:11:34.717Z,38.79
2023-05-22T04:12:34.676Z,38.77
2023-05-22T04:13:34.720Z,38.79
2023-05-22T04:14:34.752Z,38.80
2023-05-22T04:15:34.781Z,38.77
2023-05-22T04:16:34.751Z,38.78
2023-05-22T04:17:34.766Z,38.78
2023-05-22T04:18:34.764Z,38.77
2023-05-22T04:19:34.910Z,38.75
2023-05-22T04:20:34.753Z,38.80
2023-05-22T04:21:34.801Z,38.76
2023-05-22T04:22:34.822Z,38.75
2023-05-22T04:23:34.781Z,38.78
2023-05-22T04:24:34.791Z,38.78
2023-05-22T04:25:34.839Z,38.76
2023-05-22T04:26:34.878Z,38.77
2023-05-22T04:27:34.833Z,38.78
2023-05-22T04:28:34.857Z,38.77
2023-05-22T04:29:34.851Z,38.79
2023-05-22T04:30:34.907Z,38.75
2023-05-22T04:31:35.023Z,38.76
2023-05-22T04:32:34.922Z,38.77
2023-05-22T04:33:34.930Z,38.75
2023-05-22T04:34:34.893Z,38.73
2023-05-22T04:35:34.898Z,38.75
2023-05-22T04:36:34.915Z,38.73
2023-05-22T04:37:34.942Z,38.72
2023-05-22T04:38:34.908Z,38.72
2023-05-22T04:39:34.937Z,38.72
2023-05-22T04:40:35.036Z,38.74
2023-05-22T04:41:34.944Z,38.72
2023-05-22T04:42:34.950Z,38.72
2023-05-22T04:43:34.954Z,38.74
2023-05-22T04:44:34.958Z,38.73
2023-05-22T04:45:35.009Z,38.70
2023-05-22T04:46:35.049Z,38.69
2023-05-22T04:47:35.082Z,38.70
2023-05-22T04:48:35.027Z,38.69
2023-05-22T04:49:34.999Z,38.69
2023-05-22T04:50:35.001Z,38.67
2023-05-22T04:51:35.133Z,38.68
2023-05-22T04:52:35.083Z,38.69
2023-05-22T04:53:35.023Z,38.64
2023-05-22T04:54:35.042Z,38.65
2023-05-22T04:55:35.092Z,38.64
2023-05-22T04:56:36.822Z,38.63
2023-05-22T04:57:35.089Z,38.65
2023-05-22T04:58:35.044Z,38.64
2023-05-22T04:59:35.083Z,38.63
2023-05-22T05:00:35.116Z,38.63
2023-05-22T05:01:35.276Z,38.63
2023-05-22T05:02:35.115Z,38.63
2023-05-22T05:03:35.129Z,38.64
2023-05-22T05:04:35.089Z,38.65
2023-05-22T05:05:35.127Z,38.64
2023-05-22T05:06:35.115Z,38.64
2023-05-22T05:07:35.128Z,38.66
2023-05-22T05:08:35.122Z,38.64
2023-05-22T05:09:35.104Z,38.63
2023-05-22T05:10:35.112Z,38.68
2023-05-22T05:11:35.105Z,38.65
2023-05-22T05:12:35.182Z,38.65
2023-05-22T05:13:35.150Z,38.67
2023-05-22T05:14:35.149Z,38.64
2023-05-22T05:15:35.111Z,38.65
2023-05-22T05:16:35.158Z,38.65
2023-05-22T05:17:35.183Z,38.67
2023-05-22T05:18:35.185Z,38.63
2023-05-22T05:20:35.148Z,38.66
2023-05-22T05:21:35.173Z,38.66
2023-05-22T05:22:35.163Z,38.65
2023-05-22T05:23:35.185Z,38.64
2023-05-22T05:24:35.228Z,38.64
2023-05-22T05:25:35.209Z,38.60
2023-05-22T05:26:35.173Z,38.62
2023-05-22T05:27:35.148Z,38.63
2023-05-22T05:28:35.182Z,38.58
2023-05-22T05:29:35.163Z,38.61
2023-05-22T05:30:35.159Z,38.61
2023-05-22T05:31:35.317Z,38.58
2023-05-22T05:32:35.175Z,38.55
2023-05-22T05:33:35.218Z,38.57
2023-05-22T05:34:35.146Z,38.55
2023-05-22T05:35:35.148Z,38.57
2023-05-22T05:36:35.103Z,38.56
2023-05-22T05:37:35.141Z,38.56
2023-05-22T05:38:35.144Z,38.58
2023-05-22T05:39:35.162Z,38.55
2023-05-22T05:40:35.110Z,38.57
2023-05-22T05:41:35.111Z,38.54
2023-05-22T05:42:35.123Z,38.58
2023-05-22T05:43:35.113Z,38.56
2023-05-22T05:44:35.113Z,38.53
2023-05-22T05:45:35.179Z,38.56
2023-05-22T05:46:35.205Z,38.53
2023-05-22T05:47:35.183Z,38.55
2023-05-22T05:48:35.155Z,38.76
2023-05-22T05:49:35.944Z,38.69
2023-05-22T05:50:35.095Z,38.74
2023-05-22T05:51:35.126Z,38.76
2023-05-22T05:52:35.098Z,38.77
2023-05-22T05:53:35.128Z,38.79
2023-05-22T05:54:35.083Z,38.82
2023-05-22T05:55:35.241Z,38.91
2023-05-22T05:56:35.097Z,38.99
2023-05-22T05:57:35.136Z,38.96
2023-05-22T05:58:35.088Z,39.02
2023-05-22T05:59:35.069Z,39.03
2023-05-22T06:00:35.060Z,39.07
2023-05-22T06:01:35.086Z,39.07
2023-05-22T06:02:35.134Z,39.08
2023-05-22T06:03:35.178Z,39.04
2023-05-22T06:04:35.047Z,39.05
2023-05-22T06:05:35.083Z,39.01
2023-05-22T06:06:35.064Z,39.04
2023-05-22T06:07:35.066Z,39.07
2023-05-22T06:08:35.116Z,39.07
2023-05-22T06:09:35.190Z,39.09
2023-05-22T06:10:35.076Z,39.10
2023-05-22T06:11:35.036Z,39.09
2023-05-22T06:12:35.044Z,39.10
2023-05-22T06:13:35.020Z,39.11
2023-05-22T06:14:35.031Z,39.14
2023-05-22T06:15:35.032Z,39.11
2023-05-22T06:16:35.119Z,39.08
2023-05-22T06:17:35.088Z,39.13
2023-05-22T06:18:35.004Z,39.11
2023-05-22T06:19:35.145Z,39.11
2023-05-22T06:20:35.024Z,39.12
2023-05-22T06:21:35.041Z,39.06
2023-05-22T06:22:34.995Z,39.03
2023-05-22T06:23:35.010Z,39.01
2023-05-22T06:24:35.030Z,38.96
2023-05-22T06:25:35.007Z,39.02
2023-05-22T06:26:34.988Z,39.08
2023-05-22T06:27:35.065Z,39.09
2023-05-22T06:28:34.967Z,39.07
2023-05-22T06:29:34.997Z,39.11
2023-05-22T06:30:40.031Z,39.11
2023-05-22T06:31:36.012Z,39.10
2023-05-22T06:32:35.101Z,39.14
2023-05-22T06:33:35.024Z,39.11
2023-05-22T06:34:34.992Z,39.14
2023-05-22T06:35:35.007Z,39.11
2023-05-22T06:36:35.019Z,39.09
2023-05-22T06:37:34.957Z,39.09
2023-05-22T06:38:34.927Z,39.11
2023-05-22T06:39:34.918Z,39.11
2023-05-22T06:40:34.968Z,39.11
2023-05-22T06:41:34.940Z,39.09
2023-05-22T06:42:34.898Z,39.09
2023-05-22T06:43:34.946Z,39.07
2023-05-22T06:44:34.866Z,39.08
2023-05-22T06:45:34.918Z,39.07
2023-05-22T06:46:34.944Z,39.06
2023-05-22T06:47:34.905Z,39.06
2023-05-22T06:48:34.873Z,39.00
2023-05-22T06:49:34.881Z,39.02
2023-05-22T06:50:34.840Z,39.01
2023-05-22T06:51:34.842Z,39.07
2023-05-22T06:52:34.822Z,39.11
2023-05-22T06:53:34.808Z,39.77
2023-05-22T06:54:34.811Z,39.93
2023-05-22T06:55:34.808Z,39.70
2023-05-22T06:56:34.833Z,40.38
2023-05-22T06:57:34.844Z,40.79
2023-05-22T06:58:34.824Z,42.20
2023-05-22T06:59:34.776Z,43.62
2023-05-22T07:00:34.804Z,43.86
2023-05-22T07:01:34.827Z,44.06
2023-05-22T07:02:34.776Z,44.55
2023-05-22T07:03:34.777Z,44.74
2023-05-22T07:04:34.723Z,44.93
2023-05-22T07:05:34.799Z,45.43
2023-05-22T07:06:34.747Z,45.60
2023-05-22T07:07:34.769Z,46.22
2023-05-22T07:08:34.760Z,46.74
2023-05-22T07:09:34.761Z,46.78
2023-05-22T07:10:34.764Z,46.61
2023-05-22T07:11:34.771Z,47.09
2023-05-22T07:12:34.753Z,47.10
2023-05-22T07:13:34.774Z,47.30
2023-05-22T07:14:34.745Z,47.64
2023-05-22T07:15:34.763Z,47.80
2023-05-22T07:16:34.855Z,47.61
2023-05-22T07:17:34.932Z,47.89
2023-05-22T07:18:34.979Z,47.79
2023-05-22T07:19:35.064Z,47.85
2023-05-22T07:20:35.063Z,48.02
2023-05-22T07:21:35.084Z,47.92
2023-05-22T07:22:35.158Z,47.86
2023-05-22T07:23:35.224Z,47.97
2023-05-22T07:24:35.223Z,47.94
2023-05-22T07:25:35.252Z,47.97
2023-05-22T07:26:35.285Z,48.08
2023-05-22T07:27:35.338Z,48.12
2023-05-22T07:28:35.386Z,48.06
2023-05-22T07:29:35.436Z,47.57
2023-05-22T07:30:35.471Z,47.87
2023-05-22T07:31:35.515Z,48.10
2023-05-22T07:32:35.559Z,48.05
2023-05-22T07:33:35.537Z,48.01
2023-05-22T07:34:35.536Z,48.03
2023-05-22T07:35:35.542Z,48.36
2023-05-22T07:36:35.570Z,48.09
2023-05-22T07:37:35.975Z,48.28
2023-05-22T07:38:35.561Z,47.99
2023-05-22T07:39:35.572Z,48.07
2023-05-22T07:40:35.552Z,48.20
2023-05-22T07:41:35.538Z,48.14
2023-05-22T07:42:35.642Z,48.16
2023-05-22T07:43:35.557Z,48.24
2023-05-22T07:44:35.565Z,48.25
2023-05-22T07:45:35.919Z,48.21
2023-05-22T07:46:35.763Z,47.72
2023-05-22T07:47:35.638Z,47.23
2023-05-22T07:48:35.594Z,46.09
2023-05-22T07:49:35.631Z,45.66
2023-05-22T07:50:35.712Z,46.15
2023-05-22T07:51:35.653Z,45.89
2023-05-22T07:52:35.645Z,45.46
2023-05-22T07:53:35.625Z,45.53
2023-05-22T07:54:35.622Z,44.66
2023-05-22T07:55:35.641Z,44.99
2023-05-22T07:56:35.616Z,45.16
2023-05-22T07:57:35.601Z,45.12
2023-05-22T07:58:35.656Z,45.09
2023-05-22T07:59:35.642Z,44.98
2023-05-22T08:00:35.690Z,44.89
2023-05-22T08:01:35.842Z,44.66
2023-05-22T08:02:35.774Z,44.01
2023-05-22T08:03:35.792Z,44.01
2023-05-22T08:04:35.806Z,44.14
2023-05-22T08:05:35.649Z,44.03
2023-05-22T08:06:35.717Z,44.06
2023-05-22T08:07:35.720Z,43.84
2023-05-22T08:08:35.674Z,43.84
2023-05-22T08:09:35.685Z,43.56
2023-05-22T08:10:52.021Z,43.49
2023-05-22T08:11:38.450Z,43.39
2023-05-22T08:12:35.817Z,43.25
2023-05-22T08:13:35.683Z,43.20
2023-05-22T08:14:35.709Z,43.18
2023-05-22T08:15:35.704Z,42.94
2023-05-22T08:16:35.771Z,42.88
2023-05-22T08:17:35.796Z,42.79
2023-05-22T08:18:35.681Z,42.44
2023-05-22T08:19:35.747Z,42.44
2023-05-22T08:20:35.666Z,42.30
2023-05-22T08:21:35.640Z,42.33
2023-05-22T08:22:35.697Z,42.23
2023-05-22T08:23:35.618Z,42.21
2023-05-22T08:24:35.618Z,42.22
2023-05-22T08:25:35.617Z,42.14
2023-05-22T08:26:35.631Z,42.09
2023-05-22T08:27:35.646Z,42.04
2023-05-22T08:28:35.596Z,42.03
2023-05-22T08:29:35.694Z,41.92
2023-05-22T08:30:35.612Z,41.86
2023-05-22T08:31:36.817Z,41.57
2023-05-22T08:32:42.962Z,41.08
2023-05-22T08:33:35.598Z,41.01
2023-05-22T08:34:35.553Z,40.88
2023-05-22T08:35:35.536Z,40.59
2023-05-22T08:36:35.557Z,40.38
2023-05-22T08:37:35.563Z,39.92
2023-05-22T08:38:35.549Z,39.84
2023-05-22T08:39:35.531Z,40.13
2023-05-22T08:40:35.491Z,39.42
2023-05-22T08:41:35.547Z,39.80
2023-05-22T08:42:35.523Z,39.98
2023-05-22T08:43:35.512Z,39.47
2023-05-22T08:44:35.500Z,38.72
2023-05-22T08:45:35.493Z,38.22
2023-05-22T08:46:35.522Z,38.23
2023-05-22T08:47:35.561Z,38.53
2023-05-22T08:48:35.591Z,38.75
2023-05-22T08:49:35.465Z,39.01
2023-05-22T08:50:35.445Z,39.25
2023-05-22T08:51:35.438Z,39.25
2023-05-22T08:52:35.573Z,39.29
2023-05-22T08:53:35.489Z,39.47
2023-05-22T08:54:35.415Z,39.77
2023-05-22T08:55:35.416Z,40.08
2023-05-22T08:56:37.591Z,40.53
2023-05-22T08:57:36.400Z,41.08
2023-05-22T08:58:35.394Z,41.22
2023-05-22T08:59:35.415Z,41.67
2023-05-22T09:00:35.363Z,42.38
2023-05-22T09:01:35.440Z,42.31
2023-05-22T09:02:35.411Z,42.79
2023-05-22T09:03:35.391Z,43.09
2023-05-22T09:04:35.443Z,43.69
2023-05-22T09:05:35.375Z,43.77
2023-05-22T09:06:35.335Z,43.59
2023-05-22T09:07:35.314Z,43.62
2023-05-22T09:08:35.357Z,43.79
2023-05-22T09:09:35.341Z,44.00
2023-05-22T09:10:36.034Z,43.98
2023-05-22T09:11:35.311Z,44.07
2023-05-22T09:12:35.339Z,44.32
2023-05-22T09:13:35.287Z,44.39
2023-05-22T09:14:35.378Z,44.71
2023-05-22T09:15:35.291Z,44.39
2023-05-22T09:16:35.300Z,44.41
2023-05-22T09:17:35.423Z,44.37
2023-05-22T09:18:35.253Z,44.31
2023-05-22T09:19:35.307Z,44.37
2023-05-22T09:20:35.441Z,44.34
2023-05-22T09:21:35.336Z,44.37
2023-05-22T09:22:35.424Z,44.57
2023-05-22T09:23:35.455Z,44.57
2023-05-22T09:24:35.509Z,44.70
2023-05-22T09:25:35.577Z,44.53
2023-05-22T09:26:35.670Z,44.69
2023-05-22T09:27:35.708Z,44.82
2023-05-22T09:28:35.757Z,44.73
2023-05-22T09:29:35.797Z,44.84
2023-05-22T09:30:35.847Z,44.75
2023-05-22T09:31:35.970Z,44.86
2023-05-22T09:32:36.081Z,44.77
2023-05-22T09:33:35.977Z,44.91
2023-05-22T09:34:36.030Z,45.10
2023-05-22T09:35:36.082Z,45.11
2023-05-22T09:36:36.176Z,45.21
2023-05-22T09:37:36.579Z,45.25
2023-05-22T09:38:36.210Z,44.97
2023-05-22T09:39:36.239Z,44.93
2023-05-22T09:40:36.266Z,45.02
2023-05-22T09:41:36.335Z,45.03
2023-05-22T09:42:36.365Z,45.06
2023-05-22T09:43:36.410Z,45.01
2023-05-22T09:44:36.469Z,44.75
2023-05-22T09:45:36.473Z,44.40
2023-05-22T09:46:36.595Z,42.48
2023-05-22T09:47:36.613Z,40.86
2023-05-22T09:48:36.574Z,40.37
2023-05-22T09:49:36.531Z,40.65
2023-05-22T09:50:36.647Z,40.39
2023-05-22T09:51:36.556Z,39.64
2023-05-22T09:52:36.586Z,40.11
2023-05-22T09:53:36.616Z,40.24
2023-05-22T09:54:36.614Z,38.86
2023-05-22T09:55:36.605Z,38.28
2023-05-22T09:57:36.686Z,39.15
2023-05-22T09:58:36.698Z,39.48
2023-05-22T09:59:36.698Z,40.05
2023-05-22T10:00:36.743Z,40.06
2023-05-22T10:01:36.822Z,39.79
2023-05-22T10:02:36.811Z,39.75
2023-05-22T10:03:36.800Z,39.84
2023-05-22T10:04:36.872Z,38.91
2023-05-22T10:05:36.870Z,39.10
2023-05-22T10:06:36.838Z,39.33
2023-05-22T10:07:36.898Z,39.45
2023-05-22T10:08:36.891Z,39.69
2023-05-22T10:09:36.922Z,39.50
2023-05-22T10:10:36.929Z,39.62
2023-05-22T10:11:36.914Z,39.29
2023-05-22T10:12:36.918Z,39.59
2023-05-22T10:13:36.909Z,39.62
2023-05-22T10:14:36.953Z,39.57
2023-05-22T10:15:36.956Z,39.65
2023-05-22T10:16:37.090Z,39.79
2023-05-22T10:17:36.979Z,39.71
2023-05-22T10:18:36.948Z,39.60
2023-05-22T10:19:38.738Z,39.38
2023-05-22T10:20:36.986Z,39.60
2023-05-22T10:21:36.963Z,39.57
2023-05-22T10:22:36.898Z,39.39
2023-05-22T10:23:36.881Z,39.53
2023-05-22T10:24:36.969Z,39.69
2023-05-22T10:25:36.896Z,39.59
2023-05-22T10:26:36.855Z,39.57
2023-05-22T10:27:36.877Z,39.75
2023-05-22T10:28:36.853Z,39.89
2023-05-22T10:29:36.868Z,39.85
2023-05-22T10:30:36.880Z,40.04
2023-05-22T10:31:38.357Z,39.70
2023-05-22T10:32:36.903Z,39.15
2023-05-22T10:33:36.860Z,38.93
2023-05-22T10:34:36.853Z,38.84
2023-05-22T10:35:36.827Z,38.97
2023-05-22T10:36:36.856Z,39.37
2023-05-22T10:37:36.773Z,39.07
2023-05-22T10:38:36.779Z,39.58
2023-05-22T10:39:36.794Z,39.51
2023-05-22T10:40:36.858Z,39.67
2023-05-22T10:41:36.790Z,39.25
2023-05-22T10:42:36.822Z,38.86
2023-05-22T10:43:36.750Z,38.95
2023-05-22T10:44:36.773Z,38.81
2023-05-22T10:45:36.879Z,38.79
2023-05-22T10:46:36.746Z,38.70
2023-05-22T10:47:36.793Z,38.66
2023-05-22T10:48:36.760Z,38.64
2023-05-22T10:49:36.771Z,38.67
2023-05-22T10:50:36.774Z,38.78
2023-05-22T10:51:36.731Z,38.86
2023-05-22T10:52:36.704Z,38.81
2023-05-22T10:53:36.735Z,38.83
2023-05-22T10:54:36.701Z,38.92
2023-05-22T10:55:36.701Z,38.99
2023-05-22T10:56:36.777Z,38.96
2023-05-22T10:57:36.644Z,39.03
2023-05-22T10:58:36.692Z,39.06
2023-05-22T10:59:36.665Z,38.99
2023-05-22T11:00:36.672Z,38.97
2023-05-22T11:01:36.675Z,38.91
2023-05-22T11:02:36.653Z,38.86
2023-05-22T11:03:36.647Z,38.78
2023-05-22T11:04:36.642Z,38.69
2023-05-22T11:05:36.646Z,38.71
2023-05-22T11:06:36.625Z,38.67
2023-05-22T11:07:36.576Z,38.58
2023-05-22T11:08:36.617Z,38.49
2023-05-22T11:09:36.663Z,38.40
2023-05-22T11:10:36.567Z,38.45
2023-05-22T11:11:36.575Z,38.45
2023-05-22T11:12:36.669Z,38.36
2023-05-22T11:13:36.549Z,38.39
2023-05-22T11:14:36.540Z,38.37
2023-05-22T11:15:36.548Z,38.28
2023-05-22T11:16:36.593Z,38.16
2023-05-22T11:17:36.636Z,38.02
2023-05-22T11:18:36.541Z,38.03
2023-05-22T11:19:36.560Z,38.06
2023-05-22T11:20:36.511Z,38.17
2023-05-22T11:21:36.512Z,38.11
2023-05-22T11:22:36.531Z,38.04
2023-05-22T11:23:36.494Z,37.81
2023-05-22T11:24:36.506Z,37.81
2023-05-22T11:25:36.485Z,37.74
2023-05-22T11:26:36.484Z,37.86
2023-05-22T11:27:36.514Z,37.57
2023-05-22T11:28:36.560Z,37.62
2023-05-22T11:29:36.484Z,37.44
2023-05-22T11:30:36.474Z,37.53
2023-05-22T11:31:36.608Z,37.57
2023-05-22T11:32:36.540Z,37.41
2023-05-22T11:33:36.500Z,37.33
2023-05-22T11:34:36.521Z,37.51
2023-05-22T11:35:36.540Z,37.61
2023-05-22T11:36:36.776Z,37.60
2023-05-22T11:37:36.601Z,37.23
2023-05-22T11:38:36.608Z,37.36
2023-05-22T11:39:36.663Z,37.14
2023-05-22T11:40:36.816Z,37.06
2023-05-22T11:41:36.675Z,36.90
2023-05-22T11:42:36.677Z,36.84
2023-05-22T11:43:36.723Z,36.87
2023-05-22T11:44:36.840Z,36.95
2023-05-22T11:45:36.798Z,37.08
2023-05-22T11:46:36.836Z,37.08
2023-05-22T11:47:36.875Z,37.04
2023-05-22T11:48:36.931Z,36.85
2023-05-22T11:49:36.941Z,36.92
2023-05-22T11:50:42.191Z,36.84
2023-05-22T11:51:38.050Z,36.76
2023-05-22T11:52:36.958Z,36.81
2023-05-22T11:53:37.086Z,36.80
2023-05-22T11:54:38.605Z,36.80
2023-05-22T11:55:36.949Z,36.76
2023-05-22T11:56:36.930Z,36.75
2023-05-22T11:57:36.929Z,36.56
2023-05-22T11:58:36.890Z,36.21
2023-05-22T11:59:36.889Z,36.14
2023-05-22T12:00:37.155Z,35.96
2023-05-22T12:01:36.904Z,35.87
2023-05-22T12:02:37.010Z,35.97
2023-05-22T12:03:37.040Z,36.10
2023-05-22T12:04:37.024Z,36.02
2023-05-22T12:05:37.129Z,36.22
2023-05-22T12:06:37.177Z,35.93
2023-05-22T12:07:37.211Z,36.01
2023-05-22T12:08:37.244Z,36.05
2023-05-22T12:09:37.322Z,36.03
2023-05-22T12:10:37.803Z,36.05
2023-05-22T12:11:37.454Z,36.15
2023-05-22T12:12:37.481Z,36.17
2023-05-22T12:13:37.550Z,36.15
2023-05-22T12:14:37.628Z,36.06
2023-05-22T12:15:37.667Z,36.13
2023-05-22T12:16:37.886Z,35.97
2023-05-22T12:17:37.861Z,35.91
2023-05-22T12:18:37.941Z,35.73
2023-05-22T12:19:38.103Z,35.83
2023-05-22T12:20:38.236Z,35.85
2023-05-22T12:21:38.022Z,35.76
2023-05-22T12:22:38.064Z,35.78
2023-05-22T12:23:38.080Z,35.94
2023-05-22T12:24:38.155Z,35.98
2023-05-22T12:25:38.121Z,36.03
2023-05-22T12:26:38.214Z,36.04
2023-05-22T12:27:38.646Z,36.17
2023-05-22T12:28:38.166Z,36.08
2023-05-22T12:29:38.181Z,36.12
2023-05-22T12:30:38.425Z,35.93
2023-05-22T12:31:38.262Z,35.88
2023-05-22T12:32:38.287Z,35.77
2023-05-22T12:33:38.142Z,35.63
2023-05-22T12:34:38.145Z,35.72
2023-05-22T12:35:38.169Z,35.31
2023-05-22T12:36:38.130Z,35.06
2023-05-22T12:37:38.148Z,35.14
2023-05-22T12:38:38.152Z,35.31
2023-05-22T12:39:38.164Z,35.27
2023-05-22T12:40:38.278Z,35.23
2023-05-22T12:41:38.139Z,35.27
2023-05-22T12:42:38.097Z,35.16
2023-05-22T12:43:38.118Z,35.10
2023-05-22T12:44:38.103Z,34.99
2023-05-22T12:45:38.099Z,34.83
2023-05-22T12:46:38.170Z,35.06
2023-05-22T12:47:38.126Z,35.03
2023-05-22T12:48:38.216Z,34.86
2023-05-22T12:49:38.105Z,34.78
2023-05-22T12:50:38.197Z,34.96
2023-05-22T12:51:38.117Z,34.65
2023-05-22T12:52:38.110Z,34.80
2023-05-22T12:53:38.143Z,34.90
2023-05-22T12:54:38.100Z,34.80